Time;durP1;ratioP1;P1;durP2;ratioP2;P2;SDS_P1;SDS_P2;PMS_P1;PMS_P2;Temp;Humidity;BMP_temperature;BMP_pressure;BME280_temperature;BME280_humidity;BME280_pressure;Samples;Min_cycle;Max_cycle;Signal;HPM_P1;HPM_P2
2022/05/20 00:00:26;;;;;;;7.68;3.72;;;;;;;10.28;67.87;100388.22;4982807;28;20025;-92
2022/05/20 00:02:51;;;;;;;8.55;3.53;;;;;;;10.34;67.71;100394.53;4983128;28;20025;-91
2022/05/20 00:05:17;;;;;;;7.53;3.00;;;;;;;10.28;68.03;100388.22;4982838;28;20088;-92
2022/05/20 00:07:43;;;;;;;5.13;3.30;;;;;;;10.22;68.12;100384.59;4982820;28;20094;-90
2022/05/20 00:10:09;;;;;;;5.75;3.80;;;;;;;10.17;68.10;100392.59;4983064;28;20029;-91
2022/05/20 00:12:36;;;;;;;6.22;3.00;;;;;;;10.23;67.85;100404.25;4982773;28;20026;-91
2022/05/20 00:15:03;;;;;;;6.95;3.25;;;;;;;10.10;67.82;100384.63;4983028;28;20035;-91
2022/05/20 00:17:28;;;;;;;7.57;3.00;;;;;;;10.00;68.22;100386.31;4982862;28;20124;-91
2022/05/20 00:19:53;;;;;;;6.75;3.53;;;;;;;10.02;67.66;100389.59;4982988;28;20052;-91
2022/05/20 00:22:19;;;;;;;7.88;3.50;;;;;;;10.05;68.42;100389.94;4982721;28;20026;-91
2022/05/20 00:27:28;;;;;;;6.78;3.20;;;;;;;10.07;68.34;100397.78;5004629;28;20113;-92
2022/05/20 00:29:59;;;;;;;12.38;3.20;;;;;;;10.16;67.51;100395.53;4982888;28;20029;-92
2022/05/20 00:32:24;;;;;;;8.70;3.05;;;;;;;10.04;68.26;100391.00;4999059;28;20029;-92
2022/05/20 00:34:50;;;;;;;7.75;4.13;;;;;;;10.09;68.49;100411.81;4982645;28;20029;-93
2022/05/20 00:37:15;;;;;;;8.40;3.15;;;;;;;10.15;67.53;100399.25;4982614;28;20545;-92
2022/05/20 00:39:41;;;;;;;8.77;2.90;;;;;;;10.05;68.03;100383.75;4982495;28;20099;-92
2022/05/20 00:42:13;;;;;;;8.13;3.72;;;;;;;10.11;67.93;100393.56;4982450;28;20479;-91
2022/05/20 00:44:38;;;;;;;3.95;2.80;;;;;;;10.15;67.73;100393.88;4983302;28;20060;-91
2022/05/20 00:47:04;;;;;;;5.20;2.85;;;;;;;10.17;68.40;100405.22;4982870;28;20083;-91
2022/05/20 00:49:29;;;;;;;9.35;3.10;;;;;;;10.05;68.53;100408.78;4982414;28;20060;-91
2022/05/20 00:51:55;;;;;;;7.00;3.10;;;;;;;10.09;68.58;100406.44;4982528;28;20030;-91
2022/05/20 00:54:24;;;;;;;4.53;3.05;;;;;;;9.90;68.68;100387.78;4982702;28;20061;-92
2022/05/20 00:56:56;;;;;;;10.68;3.47;;;;;;;9.89;68.76;100394.19;5001273;28;20059;-91
2022/05/20 00:59:24;;;;;;;7.90;2.92;;;;;;;9.84;68.88;100390.59;4986344;28;20029;-91
2022/05/20 01:01:50;;;;;;;8.32;2.85;;;;;;;9.96;68.92;100406.69;5002785;28;20060;-91
2022/05/20 01:04:16;;;;;;;11.15;3.25;;;;;;;9.78;69.01;100396.94;4985683;28;20037;-92
2022/05/20 01:06:42;;;;;;;6.80;2.42;;;;;;;9.60;68.76;100371.81;4986055;28;20038;-91
2022/05/20 01:09:08;;;;;;;11.38;3.00;;;;;;;9.83;68.79;100389.75;4986071;28;20033;-94
2022/05/20 01:11:33;;;;;;;6.65;3.10;;;;;;;9.69;68.28;100374.94;4986186;28;20025;-93
2022/05/20 01:13:59;;;;;;;8.75;2.88;;;;;;;9.73;68.75;100392.25;4985822;28;20036;-90
2022/05/20 01:16:24;;;;;;;6.57;3.03;;;;;;;9.64;68.87;100383.75;4986660;28;20025;-93
2022/05/20 01:18:53;;;;;;;3.67;2.72;;;;;;;9.70;68.32;100384.66;4985973;28;20033;-91
2022/05/20 01:21:19;;;;;;;8.15;2.85;;;;;;;9.71;68.61;100397.88;4986863;28;20025;-91
2022/05/20 01:23:44;;;;;;;7.57;3.72;;;;;;;9.73;67.60;100381.50;4985681;28;20028;-91
2022/05/20 01:26:10;;;;;;;10.32;3.25;;;;;;;9.80;67.30;100378.69;4985661;28;20025;-91
2022/05/20 01:28:36;;;;;;;12.00;3.38;;;;;;;9.81;66.96;100389.19;4985832;28;20029;-91
2022/05/20 01:31:03;;;;;;;5.57;3.00;;;;;;;9.82;66.51;100381.97;4986583;28;20067;-91
2022/05/20 01:33:53;;;;;;;7.97;3.42;;;;;;;9.81;66.97;100372.25;5001662;28;20033;-92
2022/05/20 01:36:20;;;;;;;10.85;3.00;;;;;;;9.77;67.19;100379.97;5004213;28;20041;-93
2022/05/20 01:38:46;;;;;;;9.05;2.78;;;;;;;9.88;66.67;100379.13;4985713;28;20123;-93
2022/05/20 01:41:13;;;;;;;7.43;2.80;;;;;;;9.91;64.71;100364.38;5002526;28;20087;-93
2022/05/20 01:43:55;;;;;;;4.80;2.40;;;;;;;10.09;64.71;100374.94;4985651;28;20030;-93
2022/05/20 01:46:37;;;;;;;5.40;2.58;;;;;;;10.21;63.73;100392.91;4985643;28;20210;-93
2022/05/20 01:49:23;;;;;;;5.07;2.53;;;;;;;10.26;64.42;100401.09;5002234;28;20029;-92
2022/05/20 01:51:50;;;;;;;3.40;2.55;;;;;;;10.08;65.89;100394.81;5017409;28;20048;-93
2022/05/20 01:54:43;;;;;;;5.07;2.55;;;;;;;9.96;65.77;100388.69;5001330;28;20032;-92
2022/05/20 01:57:10;;;;;;;;;;;;;;;10.00;66.39;100397.09;5004845;28;20025;-92
2022/05/20 01:59:42;;;;;;;4.20;2.65;;;;;;;9.87;67.00;100388.22;5001262;28;19909;-92
2022/05/20 02:02:14;;;;;;;6.15;2.85;;;;;;;9.71;67.98;100380.91;5001441;28;20025;-92
2022/05/20 02:04:44;;;;;;;7.72;2.75;;;;;;;9.76;67.58;100383.72;5001583;28;20029;-92
2022/05/20 02:07:22;;;;;;;10.27;2.88;;;;;;;9.70;68.00;100390.03;4984744;28;20060;-92
2022/05/20 02:10:06;;;;;;;6.43;2.85;;;;;;;9.71;67.86;100387.13;4986015;28;20488;-91
2022/05/20 02:12:36;;;;;;;6.93;2.90;;;;;;;9.68;67.73;100386.78;5017779;28;20060;-93
2022/05/20 02:15:11;;;;;;;14.38;3.40;;;;;;;9.71;67.98;100381.75;5002091;28;20021;-91
2022/05/20 02:17:37;;;;;;;11.25;2.65;;;;;;;9.67;68.02;100385.13;4985357;28;20060;-91
2022/05/20 02:20:30;;;;;;;6.45;2.85;;;;;;;9.71;68.02;100397.88;4984346;28;20025;-90
2022/05/20 02:22:56;;;;;;;;;;;;;;;9.60;68.12;100404.09;5017107;28;20666;-90
2022/05/20 02:25:26;;;;;;;7.47;2.90;;;;;;;9.35;68.52;100384.72;5000628;28;20379;-91
2022/05/20 02:27:53;;;;;;;4.25;2.20;;;;;;;9.19;68.50;100379.00;4985361;28;20031;-91
2022/05/20 02:30:21;;;;;;;9.57;3.05;;;;;;;9.25;69.32;100399.56;5000510;28;20395;-90
2022/05/20 02:32:48;;;;;;;8.48;2.72;;;;;;;9.17;68.85;100383.81;4984161;28;20034;-91
2022/05/20 02:35:13;;;;;;;8.07;2.92;;;;;;;9.27;69.00;100400.13;5000099;28;20029;-92
2022/05/20 02:37:39;;;;;;;5.50;2.45;;;;;;;9.27;68.78;100381.31;4984222;28;20487;-90
2022/05/20 02:40:06;;;;;;;6.22;2.90;;;;;;;9.33;68.66;100378.78;4983900;28;20083;-90
2022/05/20 02:42:31;;;;;;;10.90;2.47;;;;;;;9.31;68.50;100377.13;4983896;28;20403;-90
2022/05/20 02:44:59;;;;;;;4.70;2.60;;;;;;;9.33;68.98;100390.31;4984027;28;20045;-90
2022/05/20 02:47:31;;;;;;;5.22;2.63;;;;;;;9.27;68.93;100375.94;5000470;28;20022;-89
2022/05/20 02:49:57;;;;;;;5.75;2.50;;;;;;;9.24;68.97;100375.63;4985409;28;20026;-89
2022/05/20 02:52:23;;;;;;;3.92;2.20;;;;;;;9.11;69.19;100365.94;4983349;28;20128;-89
2022/05/20 02:54:48;;;;;;;5.72;2.72;;;;;;;9.10;69.68;100380.41;4983765;28;20491;-91
2022/05/20 02:57:14;;;;;;;6.53;2.45;;;;;;;8.96;69.85;100377.13;4983709;28;20022;-89
2022/05/20 03:05:07;;;;;;;6.57;2.50;;;;;;;8.99;69.50;100382.06;5005250;28;20099;-91
2022/05/20 03:07:33;;;;;;;5.30;2.88;;;;;;;9.23;68.54;100390.09;4983325;28;20036;-91
2022/05/20 03:10:00;;;;;;;7.00;2.70;;;;;;;9.22;68.33;100388.47;4983465;28;20445;-91
2022/05/20 03:12:26;;;;;;;3.95;1.98;;;;;;;9.33;66.47;100382.25;5000219;28;20049;-92
2022/05/20 03:14:51;;;;;;;5.25;2.33;;;;;;;9.57;65.28;100398.38;4983453;28;20025;-90
2022/05/20 03:17:17;;;;;;;6.20;2.10;;;;;;;9.71;64.06;100399.72;4983062;28;20021;-91
2022/05/20 03:19:42;;;;;;;4.93;2.05;;;;;;;9.79;63.59;100403.94;4982674;28;20034;-91
2022/05/20 03:22:08;;;;;;;5.45;2.42;;;;;;;9.66;65.55;100389.69;4983098;28;20023;-90
2022/05/20 03:24:34;;;;;;;7.63;2.38;;;;;;;9.85;64.63;100413.75;4983228;28;20522;-90
2022/05/20 03:26:59;;;;;;;3.67;1.80;;;;;;;9.79;63.96;100401.25;4983167;28;20029;-92
2022/05/20 03:29:25;;;;;;;5.13;2.10;;;;;;;9.92;63.17;100392.91;4999721;28;20025;-91
2022/05/20 03:31:50;;;;;;;3.53;1.70;;;;;;;10.06;62.05;100398.81;4982812;28;20021;-91
2022/05/20 03:34:17;;;;;;;16.45;3.10;;;;;;;10.00;64.76;100399.78;4982614;28;20079;-92
2022/05/20 03:36:47;;;;;;;10.35;3.17;;;;;;;9.96;65.11;100415.59;4992911;28;20035;-90
2022/05/20 03:39:14;;;;;;;6.80;2.30;;;;;;;9.82;65.78;100398.91;5018451;28;20392;-90
2022/05/20 03:41:40;;;;;;;7.75;2.42;;;;;;;9.85;65.36;100390.34;5012306;28;20460;-87
2022/05/20 03:44:06;;;;;;;10.82;2.50;;;;;;;9.84;65.87;100409.44;5034829;28;20045;-89
2022/05/20 03:46:32;;;;;;;11.13;3.65;;;;;;;9.57;66.93;100407.25;5003421;28;20028;-89
2022/05/20 03:49:00;;;;;;;5.38;2.95;;;;;;;9.38;67.47;100395.84;5004043;28;20048;-89
2022/05/20 03:51:26;;;;;;;7.78;2.90;;;;;;;9.44;66.96;100411.03;5011802;28;20033;-89
2022/05/20 03:53:51;;;;;;;10.88;2.80;;;;;;;9.49;67.64;100408.44;4985863;28;20025;-91
2022/05/20 03:56:17;;;;;;;7.35;2.63;;;;;;;9.66;66.67;100415.78;4998783;28;20032;-91
2022/05/20 03:58:42;;;;;;;14.57;9.50;;;;;;;9.79;66.48;100423.56;4984420;28;20025;-90
2022/05/20 04:03:53;;;;;;;8.75;2.42;;;;;;;10.01;62.45;100423.75;5004753;28;20557;-91
2022/05/20 04:06:18;;;;;;;8.38;2.80;;;;;;;10.05;62.62;100422.22;4999394;28;20033;-90
2022/05/20 04:08:44;;;;;;;10.55;2.35;;;;;;;10.21;62.76;100420.66;4998778;28;20029;-88
2022/05/20 04:11:11;;;;;;;9.50;2.70;;;;;;;10.25;62.37;100419.13;5001521;28;20016;-88
2022/05/20 04:13:39;;;;;;;6.07;2.20;;;;;;;10.45;60.81;100420.59;5010707;28;20075;-88
2022/05/20 04:16:05;;;;;;;8.88;2.42;;;;;;;10.61;60.07;100427.88;5022478;28;20033;-89
2022/05/20 04:18:31;;;;;;;6.93;2.50;;;;;;;10.54;60.17;100408.34;5010885;28;20028;-89
2022/05/20 04:20:56;;;;;;;4.20;2.20;;;;;;;10.77;59.35;100430.81;5010304;28;20029;-88
2022/05/20 04:23:22;;;;;;;8.38;2.20;;;;;;;10.77;59.21;100420.88;4999491;28;20058;-89
2022/05/20 04:25:50;;;;;;;6.00;3.30;;;;;;;10.95;58.91;100427.09;5030100;28;20501;-89
2022/05/20 04:28:16;;;;;;;4.78;2.33;;;;;;;10.98;58.83;100432.81;5014581;28;20534;-89
2022/05/20 04:30:41;;;;;;;4.00;2.15;;;;;;;11.18;58.63;100442.28;5040661;28;20025;-91
2022/05/20 04:33:08;;;;;;;3.88;2.53;;;;;;;11.25;58.13;100440.25;4988968;28;20117;-91
2022/05/20 04:35:33;;;;;;;40.78;16.08;;;;;;;11.22;59.38;100422.66;5035529;28;20028;-87
2022/05/20 04:38:02;;;;;;;7.35;3.72;;;;;;;11.24;61.57;100425.91;5037635;28;20021;-88
2022/05/20 04:40:27;;;;;;;20.77;4.18;;;;;;;11.31;61.64;100420.38;5014726;28;20022;-89
2022/05/20 04:48:24;;;;;;;12.90;2.80;;;;;;;11.58;58.81;100435.84;5018660;28;20102;-94
2022/05/20 04:50:52;;;;;;;9.95;2.80;;;;;;;11.63;57.74;100434.03;4992267;28;20053;-96
2022/05/20 04:56:02;;;;;;;8.20;2.30;;;;;;;11.88;57.38;100452.47;5006501;28;20053;-95
2022/05/20 04:58:29;;;;;;;14.23;2.70;;;;;;;11.79;57.25;100429.66;4988789;28;20026;-96
2022/05/20 05:00:59;;;;;;;11.63;2.50;;;;;;;11.90;56.48;100430.63;4987660;28;20416;-94
2022/05/20 05:03:24;;;;;;;14.38;2.55;;;;;;;11.99;56.74;100431.00;5005955;28;20030;-94
2022/05/20 05:05:50;;;;;;;11.38;3.20;;;;;;;12.00;57.59;100427.25;4985734;28;20042;-92
2022/05/20 05:08:16;;;;;;;15.93;5.53;;;;;;;12.22;57.76;100440.72;4984188;28;20101;-92
2022/05/20 05:10:46;;;;;;;25.48;4.30;;;;;;;12.25;57.57;100432.94;4990087;28;20176;-95
2022/05/20 05:19:23;;;;;;;7.05;3.10;;;;;;;12.41;56.94;100442.03;4980326;28;20524;-94
2022/05/20 05:21:50;;;;;;;11.43;4.43;;;;;;;12.52;55.88;100430.25;4962385;28;20034;-96
2022/05/20 05:24:16;;;;;;;13.07;3.80;;;;;;;12.54;56.46;100427.28;4959063;28;20031;-88
2022/05/20 05:26:42;;;;;;;9.48;3.53;;;;;;;12.73;55.96;100441.25;4967027;28;20023;-91
2022/05/20 05:29:07;;;;;;;11.60;3.30;;;;;;;12.77;55.20;100436.16;4945754;28;20027;-89
2022/05/20 05:31:33;;;;;;;10.32;3.50;;;;;;;12.88;54.21;100430.56;4960967;28;20055;-88
2022/05/20 05:33:59;;;;;;;8.55;2.70;;;;;;;13.14;53.95;100450.50;4964072;28;20045;-95
2022/05/20 05:36:25;;;;;;;8.57;2.92;;;;;;;13.20;54.50;100453.25;4965287;28;20125;-94
2022/05/20 05:38:50;;;;;;;7.70;2.92;;;;;;;13.18;54.52;100439.16;4965243;28;20023;-88
2022/05/20 05:41:21;;;;;;;7.30;2.90;;;;;;;13.32;53.74;100438.50;4974584;28;20034;-96
2022/05/20 05:43:48;;;;;;;;;;;;;;;13.50;52.99;100460.78;5004310;28;20038;-94
2022/05/20 05:46:18;;;;;;;12.98;3.38;;;;;;;13.54;53.52;100437.56;4987717;28;19910;-96
2022/05/20 05:48:50;;;;;;;10.60;4.40;;;;;;;13.70;51.99;100433.84;4966182;28;20054;-96
2022/05/20 05:51:15;;;;;;;24.08;12.63;;;;;;;13.93;53.83;100453.47;4981063;28;20030;-96
2022/05/20 05:53:41;;;;;;;20.10;7.80;;;;;;;13.86;53.40;100434.75;4964354;28;20042;-93
2022/05/20 05:58:47;;;;;;;11.77;6.53;;;;;;;14.08;52.56;100448.09;5250928;22;20123;-94
2022/05/20 06:01:13;;;;;;;19.67;7.15;;;;;;;14.10;51.48;100455.97;4991982;28;20025;-96
2022/05/20 06:03:39;;;;;;;21.10;7.32;;;;;;;14.20;52.01;100445.16;5006398;28;20026;-96
2022/05/20 06:06:05;;;;;;;15.27;8.85;;;;;;;14.30;50.86;100420.81;4993603;28;20124;-95
2022/05/20 06:08:31;;;;;;;13.68;9.82;;;;;;;14.48;51.08;100416.75;5010952;28;20084;-94
2022/05/20 06:10:57;;;;;;;12.30;8.98;;;;;;;14.76;50.88;100441.78;4989730;28;20036;-92
2022/05/20 06:13:24;;;;;;;14.50;7.47;;;;;;;14.92;49.91;100435.28;4988783;28;20038;-88
2022/05/20 06:15:52;;;;;;;13.52;6.70;;;;;;;15.12;49.84;100444.50;5003497;28;20032;-95
2022/05/20 06:18:18;;;;;;;10.38;6.25;;;;;;;15.10;50.04;100436.63;4973812;28;20044;-91
2022/05/20 06:20:49;;;;;;;26.75;14.88;;;;;;;15.33;48.61;100442.56;4974741;28;20029;-95
2022/05/20 06:23:20;;;;;;;151.38;97.38;;;;;;;15.44;48.96;100437.94;4992224;28;20060;-96
2022/05/20 06:25:46;;;;;;;33.28;17.80;;;;;;;15.61;48.73;100446.59;4987836;28;20038;-93
2022/05/20 06:28:17;;;;;;;25.40;6.47;;;;;;;15.62;48.24;100437.34;5000303;28;20041;-94
2022/05/20 06:30:42;;;;;;;37.92;7.28;;;;;;;15.87;48.68;100449.25;5001571;28;20090;-93
2022/05/20 06:33:11;;;;;;;15.13;6.32;;;;;;;15.90;47.91;100430.50;5002928;28;20022;-95
2022/05/20 06:44:15;;;;;;;14.57;6.72;;;;;;;16.55;47.41;100426.91;5090396;28;20082;-95
2022/05/20 06:46:56;;;;;;;17.65;7.00;;;;;;;16.77;47.39;100435.44;5049292;28;20041;-93
2022/05/20 06:49:24;;;;;;;14.93;7.63;;;;;;;16.84;46.96;100418.81;5045945;28;20063;-95
2022/05/20 06:51:50;;;;;;;10.88;6.13;;;;;;;17.09;46.35;100428.69;5042177;28;20094;-92
2022/05/20 06:54:16;;;;;;;21.52;9.10;;;;;;;17.32;46.71;100429.00;5068471;28;20035;-95
2022/05/20 06:56:44;;;;;;;15.40;7.85;;;;;;;17.38;45.73;100419.69;5067195;28;20398;-94
2022/05/20 06:59:11;;;;;;;22.23;10.73;;;;;;;17.48;46.30;100416.06;5048829;28;20028;-96
2022/05/20 07:01:54;;;;;;;12.40;7.30;;;;;;;17.78;45.41;100442.97;5046966;28;20032;-96
2022/05/20 07:04:22;;;;;;;23.83;7.53;;;;;;;17.77;43.71;100413.28;5064633;28;20024;-96
2022/05/20 07:07:06;;;;;;;10.27;4.90;;;;;;;17.91;41.37;100413.44;5048973;28;20114;-96
2022/05/20 07:09:32;;;;;;;12.73;6.38;;;;;;;18.06;41.46;100409.69;5016331;28;20461;-95
2022/05/20 07:11:59;;;;;;;7.95;4.40;;;;;;;18.22;40.68;100411.09;5047853;28;20138;-96
2022/05/20 07:14:25;;;;;;;5.53;4.32;;;;;;;18.31;40.83;100403.06;5048731;28;20555;-96
2022/05/20 07:16:50;;;;;;;9.60;4.45;;;;;;;18.41;40.36;100407.53;5042770;28;20047;-95
2022/05/20 07:19:16;;;;;;;10.80;6.40;;;;;;;18.51;41.05;100413.69;5045381;28;20080;-92
2022/05/20 07:21:41;;;;;;;12.32;6.45;;;;;;;18.69;40.86;100417.47;5030974;28;20040;-96
2022/05/20 07:24:07;;;;;;;16.52;4.50;;;;;;;18.73;40.43;100398.59;5042243;28;20029;-93
2022/05/20 07:26:36;;;;;;;9.30;5.05;;;;;;;19.00;40.60;100422.47;5033433;28;20028;-94
2022/05/20 07:29:04;;;;;;;9.73;4.35;;;;;;;19.05;40.14;100418.84;5030237;28;20040;-94
2022/05/20 07:31:29;;;;;;;14.52;4.03;;;;;;;19.21;39.91;100413.94;5016376;28;20490;-96
2022/05/20 07:33:55;;;;;;;9.48;4.00;;;;;;;19.27;40.22;100396.34;5022863;28;20028;-93
2022/05/20 07:36:23;;;;;;;13.43;4.00;;;;;;;19.39;40.67;100393.94;5043672;28;20039;-94
2022/05/20 07:38:49;;;;;;;5.97;3.05;;;;;;;19.52;39.90;100386.84;5031485;28;20057;-94
2022/05/20 07:41:22;;;;;;;4.70;3.35;;;;;;;19.78;38.81;100392.66;5027200;28;20028;-94
2022/05/20 07:44:02;;;;;;;4.70;2.03;;;;;;;19.95;38.08;100392.03;5032410;28;20025;-94
2022/05/20 07:46:50;;;;;;;7.95;2.17;;;;;;;20.19;38.58;100399.94;5031868;28;20024;-96
2022/05/20 07:49:16;;;;;;;4.78;1.60;;;;;;;20.26;37.17;100397.63;5025860;28;20033;-95
2022/05/20 07:55:18;;;;;;;3.47;1.30;;;;;;;20.46;36.60;100384.56;5083074;28;20134;-95
2022/05/20 07:57:56;;;;;;;4.38;1.40;;;;;;;20.55;36.72;100391.75;5048574;28;20033;-95
2022/05/20 08:00:49;;;;;;;4.28;1.30;;;;;;;20.58;36.16;100371.97;5035990;28;20025;-95
2022/05/20 08:10:45;;;;;;;;;;;;;;;;;;;;;
2022/05/20 08:13:36;;;;;;;7.50;2.90;;;;;;;21.16;37.41;100370.25;5554154;23;20049;-94
2022/05/20 08:16:01;;;;;;;7.53;3.40;;;;;;;21.33;37.17;100377.75;5013837;28;20026;-90
2022/05/20 08:18:33;;;;;;;6.93;3.00;;;;;;;21.27;36.03;100373.53;5004586;28;20503;-94
2022/05/20 08:20:59;;;;;;;4.65;2.97;;;;;;;21.36;36.21;100373.56;4989269;28;20025;-91
2022/05/20 08:24:05;;;;;;;6.70;3.30;;;;;;;21.73;36.69;100407.91;5016119;28;20038;-95
2022/05/20 08:26:49;;;;;;;6.13;1.30;;;;;;;21.67;29.74;100384.50;5012717;28;20052;-95
2022/05/20 08:29:16;;;;;;;4.28;1.70;;;;;;;21.74;29.71;100379.34;4999113;28;20068;-95
2022/05/20 08:32:16;;;;;;;3.78;1.20;;;;;;;21.73;29.90;100363.25;4994885;28;20026;-96
2022/05/20 08:35:06;;;;;;;3.15;1.10;;;;;;;21.84;30.49;100366.47;4937336;29;20096;-92
2022/05/20 08:37:59;;;;;;;3.80;1.20;;;;;;;22.01;29.57;100388.44;4946689;29;20070;-96
2022/05/20 08:40:29;;;;;;;3.78;1.02;;;;;;;21.92;31.83;100382.94;4999096;28;20103;-93
2022/05/20 08:42:59;;;;;;;5.95;2.10;;;;;;;21.99;33.59;100399.72;4990320;28;20038;-96
2022/05/20 08:45:49;;;;;;;3.63;1.80;;;;;;;21.90;33.27;100376.16;5153337;23;20054;-96
2022/05/20 08:48:18;;;;;;;6.13;1.80;;;;;;;22.03;32.57;100382.63;5021429;28;20029;-96
2022/05/20 08:51:10;;;;;;;2.25;1.27;;;;;;;22.07;31.19;100389.91;4998087;28;20039;-94
2022/05/20 08:53:50;;;;;;;5.30;2.10;;;;;;;22.15;31.92;100372.66;5011245;28;20087;-93
2022/05/20 08:58:58;;;;;;;5.15;1.67;;;;;;;22.34;31.22;100379.78;5211882;23;20049;-94
2022/05/20 09:01:38;;;;;;;4.60;1.55;;;;;;;22.34;31.17;100360.56;5049779;28;20029;-93
2022/05/20 09:04:16;;;;;;;2.00;1.30;;;;;;;22.34;29.76;100372.34;5011018;28;20069;-94
2022/05/20 09:07:08;;;;;;;3.13;1.50;;;;;;;22.50;29.51;100380.91;5010735;28;20073;-92
2022/05/20 09:09:44;;;;;;;;;;;;;;;22.62;29.56;100373.94;5010666;28;20021;-92
2022/05/20 09:12:12;;;;;;;3.33;1.35;;;;;;;22.57;29.20;100367.50;5021532;28;20351;-93
2022/05/20 09:17:23;;;;;;;5.63;1.30;;;;;;;22.59;29.45;100362.47;5030730;28;20108;-94
2022/05/20 09:20:02;;;;;;;1.92;1.20;;;;;;;22.53;28.58;100341.81;5009740;28;20021;-95
2022/05/20 09:22:29;;;;;;;5.20;2.45;;;;;;;22.65;29.53;100360.38;5027790;28;20017;-94
2022/05/20 09:24:55;;;;;;;5.55;2.38;;;;;;;22.60;28.69;100341.34;5029001;28;20052;-95
2022/05/20 09:30:12;;;;;;;5.10;2.00;;;;;;;22.78;29.66;100353.88;5189241;22;20503;-92
2022/05/20 09:32:43;;;;;;;3.30;1.25;;;;;;;22.88;29.47;100352.75;5018480;28;20133;-89
2022/05/20 09:35:20;;;;;;;7.00;2.90;;;;;;;22.95;29.78;100350.31;5003464;28;20037;-89
2022/05/20 09:37:53;;;;;;;3.53;1.30;;;;;;;22.77;30.20;100324.81;5002496;28;20040;-94
2022/05/20 09:40:21;;;;;;;2.50;1.30;;;;;;;;;;5018316;28;20108;-90
2022/05/20 09:42:59;;;;;;;2.08;1.30;;;;;;;23.13;30.83;100342.84;5036182;28;20026;-92
2022/05/20 09:45:27;;;;;;;3.22;1.27;;;;;;;23.04;30.55;100319.28;5018893;28;20045;-91
2022/05/20 09:48:36;;;;;;;2.92;1.23;;;;;;;23.15;29.00;100335.06;5017181;28;20495;-90
2022/05/20 09:51:19;;;;;;;5.53;1.40;;;;;;;23.20;29.17;100309.34;4999847;28;20034;-89
2022/05/20 09:54:16;;;;;;;3.13;1.30;;;;;;;23.27;28.89;100304.16;4980307;28;20037;-92
2022/05/20 09:56:55;;;;;;;4.00;1.40;;;;;;;23.33;29.63;100319.31;4991059;28;20125;-90
2022/05/20 09:59:25;;;;;;;4.18;1.95;;;;;;;23.31;29.50;100298.81;5001284;28;20030;-90
2022/05/20 10:02:03;;;;;;;4.13;1.27;;;;;;;23.44;29.65;100310.69;5001606;28;20022;-90
2022/05/20 10:04:35;;;;;;;3.78;1.30;;;;;;;23.43;28.61;100329.13;5000728;28;20079;-91
2022/05/20 10:07:00;;;;;;;3.58;1.25;;;;;;;23.15;28.62;100299.34;4994438;28;20033;-93
2022/05/20 10:09:28;;;;;;;6.40;1.40;;;;;;;23.26;29.07;100302.53;5000841;28;20025;-88
2022/05/20 10:12:11;;;;;;;1.75;1.15;;;;;;;23.42;28.20;100323.97;5033961;28;20037;-91
2022/05/20 10:14:43;;;;;;;3.28;1.05;;;;;;;23.37;27.86;100314.75;5016418;28;20029;-87
2022/05/20 10:17:20;;;;;;;7.75;1.40;;;;;;;23.39;25.27;100303.44;5015584;28;20026;-92
2022/05/20 10:20:16;;;;;;;4.05;2.78;;;;;;;23.48;25.82;100300.66;4999991;28;20487;-95
2022/05/20 10:22:47;;;;;;;5.93;2.10;;;;;;;23.60;28.33;100306.22;4999018;28;20054;-91
2022/05/20 10:26:01;;;;;;;9.57;2.43;;;;;;;23.71;28.42;100296.44;5019782;28;20021;-94
2022/05/20 10:34:35;;;;;;;6.88;2.35;;;;;;;23.91;27.78;100289.38;4989712;28;20573;-92
2022/05/20 10:37:14;;;;;;;4.28;1.05;;;;;;;23.90;27.01;100270.44;4986518;28;20032;-94
2022/05/20 10:40:08;;;;;;;2.10;1.20;;;;;;;24.02;26.13;100289.75;5003177;28;20025;-93
2022/05/20 10:42:57;;;;;;;2.35;1.40;;;;;;;24.10;26.07;100280.63;4984617;28;20022;-94
2022/05/20 10:48:45;;;;;;;6.68;2.78;;;;;;;24.15;25.90;100276.88;5005549;28;20160;-94
2022/05/20 10:51:28;;;;;;;;;;;;;;;24.10;25.95;100275.13;5018928;28;20037;-92
2022/05/20 10:54:31;;;;;;;7.90;2.00;;;;;;;23.97;26.16;100266.03;5019207;28;19920;-93
2022/05/20 10:57:49;;;;;;;7.47;1.80;;;;;;;23.99;26.36;100251.94;5019488;28;20048;-95
2022/05/20 11:00:19;;;;;;;4.10;1.42;;;;;;;24.16;25.35;100257.28;5007765;28;20039;-93
2022/05/20 11:03:06;;;;;;;2.00;1.10;;;;;;;24.21;25.85;100262.56;5016058;28;20017;-92
2022/05/20 11:05:47;;;;;;;114.72;10.30;;;;;;;24.13;26.32;100257.94;5017436;28;20379;-93
2022/05/20 11:08:31;;;;;;;5.33;1.30;;;;;;;24.24;26.51;100246.50;5031422;28;20196;-95
2022/05/20 11:11:09;;;;;;;6.88;1.45;;;;;;;24.27;27.29;100246.63;5017917;28;20059;-90
2022/05/20 11:14:01;;;;;;;25.77;2.97;;;;;;;24.16;28.51;100217.94;5017146;28;20526;-93
2022/05/20 11:16:26;;;;;;;14.38;2.10;;;;;;;24.31;27.95;100236.56;5034831;28;20025;-92
2022/05/20 11:19:29;;;;;;;6.13;2.40;;;;;;;24.30;27.37;100234.97;5017538;28;20029;-88
2022/05/20 11:22:26;;;;;;;13.02;4.78;;;;;;;23.36;42.49;100230.69;5015964;28;20441;-92
2022/05/20 11:25:06;;;;;;;9.68;2.15;;;;;;;22.01;42.65;100215.66;5015816;28;20395;-94
2022/05/20 11:27:55;;;;;;;14.63;2.05;;;;;;;20.90;43.86;100226.97;5026548;28;20030;-90
2022/05/20 11:31:07;;;;;;;7.75;2.15;;;;;;;20.65;41.11;100225.69;4999270;28;20041;-91
2022/05/20 11:33:38;;;;;;;17.10;2.35;;;;;;;20.70;40.30;100220.91;4962942;28;20492;-91
2022/05/20 11:36:20;;;;;;;1.65;1.05;;;;;;;20.64;36.17;100204.94;4979483;28;20029;-88
2022/05/20 11:39:01;;;;;;;4.18;1.17;;;;;;;20.70;38.50;100218.16;5020793;28;20087;-89
2022/05/20 11:41:49;;;;;;;2.72;1.30;;;;;;;20.85;38.58;100211.47;5006892;28;20099;-88
2022/05/20 11:45:09;;;;;;;2.85;1.17;;;;;;;21.09;34.56;100213.00;5032050;28;20451;-91
2022/05/20 11:48:13;;;;;;;6.07;1.38;;;;;;;21.18;34.52;100197.38;5009889;28;20419;-93
2022/05/20 11:51:02;;;;;;;4.45;1.27;;;;;;;21.55;37.33;100209.69;5022592;28;20033;-89
2022/05/20 11:53:42;;;;;;;7.10;1.60;;;;;;;21.72;35.30;100202.63;5013958;28;20032;-89
2022/05/20 11:56:14;;;;;;;8.68;1.48;;;;;;;21.92;37.07;100195.69;5019950;28;20047;-89
2022/05/20 11:58:57;;;;;;;4.00;1.20;;;;;;;22.14;32.31;100173.53;4979819;28;20092;-91
2022/05/20 12:01:23;;;;;;;3.28;1.40;;;;;;;22.46;31.02;100179.59;5010161;28;20076;-89
2022/05/20 12:04:07;;;;;;;2.33;1.00;;;;;;;22.62;31.21;100179.88;4998153;28;20025;-93
2022/05/20 12:06:33;;;;;;;3.47;1.50;;;;;;;22.74;31.14;100177.22;4995592;28;20411;-91
2022/05/20 12:08:59;;;;;;;1.58;1.10;;;;;;;22.95;29.14;100165.47;5011146;28;20135;-90
2022/05/20 12:11:34;;;;;;;8.57;2.10;;;;;;;23.23;30.12;100154.81;4983419;28;20558;-92
2022/05/20 12:14:06;;;;;;;4.75;1.67;;;;;;;23.54;29.40;100162.66;5015350;28;20029;-92
2022/05/20 12:16:33;;;;;;;5.93;1.50;;;;;;;23.63;27.94;100137.03;5025747;28;20026;-89
2022/05/20 12:25:33;;;;;;;7.25;2.58;;;;;;;24.30;27.41;100157.06;5021441;28;20051;-88
2022/05/20 12:28:23;;;;;;;2.83;1.52;;;;;;;24.41;27.44;100137.03;5012196;28;20033;-88
2022/05/20 12:31:07;;;;;;;6.15;1.80;;;;;;;24.64;26.22;100150.38;5001896;28;20423;-88
2022/05/20 12:33:47;;;;;;;6.82;1.58;;;;;;;24.81;26.65;100143.81;5016004;28;20030;-93
2022/05/20 12:36:28;;;;;;;5.40;1.15;;;;;;;24.91;23.68;100140.59;5033132;28;20033;-94
2022/05/20 12:39:09;;;;;;;3.80;1.23;;;;;;;25.01;25.55;100142.88;5018983;28;20462;-92
2022/05/20 12:41:47;;;;;;;7.63;1.83;;;;;;;25.09;26.24;100134.81;5017147;28;20040;-93
2022/05/20 12:44:15;;;;;;;2.85;0.90;;;;;;;25.13;25.74;100125.53;5017641;28;20104;-93
2022/05/20 12:46:44;;;;;;;3.80;1.33;;;;;;;25.25;26.11;100121.16;5016538;28;20123;-95
2022/05/20 12:49:09;;;;;;;5.35;1.80;;;;;;;25.24;25.83;100103.81;5016091;28;20407;-95
2022/05/20 12:51:54;;;;;;;2.85;1.27;;;;;;;25.28;25.80;100095.66;5001619;28;20029;-94
2022/05/20 12:54:24;;;;;;;3.95;1.55;;;;;;;25.56;25.49;100117.69;5003071;28;20033;-95
2022/05/20 12:57:18;;;;;;;6.57;1.30;;;;;;;25.66;23.80;100111.69;5035623;28;20029;-93
2022/05/20 12:59:50;;;;;;;6.20;1.20;;;;;;;25.76;24.11;100097.38;5001205;28;20045;-93
2022/05/20 13:02:16;;;;;;;5.10;1.50;;;;;;;25.84;22.91;100086.53;5038517;28;20017;-91